Time;durP1;ratioP1;P1;durP2;ratioP2;P2;SDS_P1;SDS_P2;PMS_P1;PMS_P2;Temp;Humidity;BMP_temperature;BMP_pressure;BME280_temperature;BME280_humidity;BME280_pressure;Samples;Min_cycle;Max_cycle;Signal;HPM_P1;HPM_P2
2022/04/11 00:01:21;;;;;;;4.20;3.20;;;;;;;5.97;71.20;101966.53;5056008;28;20033;-33
2022/04/11 00:03:46;;;;;;;7.13;3.90;;;;;;;5.96;69.17;101964.88;5055844;28;20100;-33
2022/04/11 00:06:12;;;;;;;4.07;3.43;;;;;;;5.91;67.38;101967.22;5056014;28;20033;-33
2022/04/11 00:08:38;;;;;;;7.33;3.60;;;;;;;5.97;67.90;101966.53;5055255;28;20025;-33
2022/04/11 00:11:04;;;;;;;4.97;3.90;;;;;;;5.90;67.05;101957.47;5056128;28;20056;-33
2022/04/11 00:13:29;;;;;;;5.32;3.35;;;;;;;5.86;68.17;101954.31;5055770;28;20060;-33
2022/04/11 00:15:54;;;;;;;5.97;3.67;;;;;;;5.81;68.95;101926.31;5056053;28;20025;-33
2022/04/11 00:18:19;;;;;;;4.93;3.67;;;;;;;5.82;68.94;101938.72;5054510;28;20033;-33
2022/04/11 00:20:47;;;;;;;4.53;3.80;;;;;;;5.82;68.54;101947.59;5055911;28;20025;-33
2022/04/11 00:23:13;;;;;;;5.03;4.00;;;;;;;5.86;70.92;101945.41;5055910;28;20025;-33
2022/04/11 00:25:38;;;;;;;4.75;4.20;;;;;;;5.82;69.13;101952.16;5055253;28;20053;-33
2022/04/11 00:28:04;;;;;;;5.20;4.07;;;;;;;5.73;69.41;101948.63;5055652;28;20060;-33
2022/04/11 00:30:29;;;;;;;6.25;4.30;;;;;;;5.75;69.92;101953.81;5054852;28;20466;-33
2022/04/11 00:32:55;;;;;;;5.77;4.10;;;;;;;5.77;70.65;101938.41;5055335;28;20025;-33
2022/04/11 00:35:20;;;;;;;5.20;4.20;;;;;;;5.75;70.98;101938.56;5055327;28;20347;-33
2022/04/11 00:37:46;;;;;;;4.43;3.93;;;;;;;5.81;69.95;101932.53;5055023;28;20033;-33
2022/04/11 00:40:11;;;;;;;6.07;4.37;;;;;;;5.75;70.51;101933.19;5055802;28;20033;-33
2022/04/11 00:42:37;;;;;;;5.57;4.30;;;;;;;5.67;71.58;101915.28;5054940;28;20392;-33
2022/04/11 00:45:03;;;;;;;6.60;4.50;;;;;;;5.70;69.91;101924.81;5055373;28;20033;-33
2022/04/11 00:47:29;;;;;;;5.63;3.95;;;;;;;5.65;70.48;101924.50;5055213;28;20029;-33
2022/04/11 00:49:58;;;;;;;7.05;4.65;;;;;;;5.70;70.15;101922.13;5055057;28;20128;-33
2022/04/11 00:52:25;;;;;;;5.82;4.70;;;;;;;5.71;71.19;101920.28;5054758;28;20119;-33
2022/04/11 00:54:50;;;;;;;6.30;4.50;;;;;;;5.73;69.78;101921.78;5055162;28;20094;-33
2022/04/11 00:57:16;;;;;;;4.13;3.73;;;;;;;5.73;71.03;101913.75;5054789;28;20428;-33
2022/04/11 00:59:42;;;;;;;6.13;5.00;;;;;;;5.73;69.40;101913.75;5055422;28;20531;-33
2022/04/11 01:02:07;;;;;;;5.57;4.70;;;;;;;5.66;70.85;101904.69;5054544;28;20021;-33
2022/04/11 01:04:34;;;;;;;7.17;4.47;;;;;;;5.65;70.22;101913.75;5055047;28;20044;-33
2022/04/11 01:06:59;;;;;;;8.25;4.88;;;;;;;5.60;70.89;101905.41;5054639;28;20374;-33
2022/04/11 01:09:25;;;;;;;5.30;4.82;;;;;;;5.63;71.15;101908.56;5054354;28;20033;-33
2022/04/11 01:11:51;;;;;;;6.22;5.22;;;;;;;5.53;70.29;101907.09;5054654;28;20541;-33
2022/04/11 01:14:17;;;;;;;6.45;5.25;;;;;;;5.45;70.06;101893.69;5054313;28;20361;-33
2022/04/11 01:16:52;;;;;;;5.28;4.75;;;;;;;5.44;70.08;101898.22;5054839;28;20037;-33
2022/04/11 01:19:19;;;;;;;7.15;5.15;;;;;;;5.41;69.74;101903.94;5054885;28;20025;-33
2022/04/11 01:21:48;;;;;;;6.28;5.10;;;;;;;5.39;69.76;101906.78;5053919;28;20037;-33
2022/04/11 01:24:18;;;;;;;7.80;4.93;;;;;;;5.31;69.18;101897.91;5054370;28;20029;-33
2022/04/11 01:26:44;;;;;;;5.22;4.43;;;;;;;5.52;70.36;101903.59;5053937;28;20029;-33
2022/04/11 01:29:11;;;;;;;4.97;4.45;;;;;;;5.41;69.73;101902.06;5053953;28;20524;-33
2022/04/11 01:31:37;;;;;;;5.10;4.50;;;;;;;5.52;71.50;101897.38;5054100;28;20025;-33
2022/04/11 01:34:02;;;;;;;5.67;5.00;;;;;;;5.49;70.16;101901.25;5054042;28;20025;-33
2022/04/11 01:36:27;;;;;;;6.57;4.77;;;;;;;5.45;69.63;101899.06;5052401;28;20416;-33
2022/04/11 01:38:53;;;;;;;6.50;4.93;;;;;;;5.40;70.18;101905.78;5053950;28;20056;-33
2022/04/11 01:41:20;;;;;;;5.07;4.07;;;;;;;5.47;71.87;101907.81;5054390;28;20033;-33
2022/04/11 01:43:45;;;;;;;5.88;4.65;;;;;;;5.43;71.30;101902.75;5054253;28;20048;-33
2022/04/11 01:46:11;;;;;;;5.95;5.15;;;;;;;5.43;70.94;101902.75;5054005;28;20429;-33
2022/04/11 01:48:36;;;;;;;6.30;4.40;;;;;;;5.39;69.45;101901.44;5053678;28;20441;-33
2022/04/11 01:51:02;;;;;;;5.73;5.10;;;;;;;5.42;70.06;101903.78;5053517;28;20024;-34
2022/04/11 01:53:27;;;;;;;6.43;5.07;;;;;;;5.40;70.74;101903.09;5054280;28;20485;-39
2022/04/11 01:55:52;;;;;;;7.40;5.10;;;;;;;5.32;70.51;101894.22;5054157;28;20033;-33
2022/04/11 01:58:18;;;;;;;5.03;4.40;;;;;;;5.40;71.17;101896.91;5053618;28;20334;-33
2022/04/11 02:00:43;;;;;;;8.93;5.10;;;;;;;5.36;72.65;101888.34;5053579;28;20496;-33
2022/04/11 02:03:10;;;;;;;8.50;5.13;;;;;;;5.30;71.38;101891.72;5053702;28;20025;-33
2022/04/11 02:05:36;;;;;;;7.45;4.93;;;;;;;5.27;70.95;101894.75;5054096;28;20049;-33
2022/04/11 02:08:03;;;;;;;6.38;5.10;;;;;;;5.24;70.58;101896.94;5053478;28;20470;-33
2022/04/11 02:10:28;;;;;;;6.63;4.90;;;;;;;5.25;70.57;101888.72;5053996;28;20059;-33
2022/04/11 02:12:54;;;;;;;5.57;5.07;;;;;;;5.18;71.63;101882.38;5052371;28;20115;-33
2022/04/11 02:15:20;;;;;;;5.32;4.82;;;;;;;5.23;70.63;101882.69;5053269;28;20087;-33
2022/04/11 02:17:50;;;;;;;6.67;5.23;;;;;;;5.24;71.08;101897.78;5053274;28;20029;-33
2022/04/11 02:20:16;;;;;;;4.95;4.53;;;;;;;5.27;71.22;101892.09;5053052;28;20116;-33
2022/04/11 02:22:53;;;;;;;6.38;4.85;;;;;;;5.23;71.22;101896.09;5053780;28;20094;-33
2022/04/11 02:25:21;;;;;;;6.00;5.40;;;;;;;5.19;72.51;101891.25;5053378;28;20098;-33
2022/04/11 02:27:47;;;;;;;5.63;5.10;;;;;;;5.02;71.60;101879.69;5052634;28;20029;-33
2022/04/11 02:30:14;;;;;;;6.05;5.15;;;;;;;5.14;72.53;101897.97;5053272;28;20071;-33
2022/04/11 02:32:40;;;;;;;6.90;4.80;;;;;;;5.15;71.80;101901.47;5053147;28;20048;-35
2022/04/11 02:35:06;;;;;;;5.32;4.82;;;;;;;5.12;72.90;101889.25;5052912;28;20029;-33
2022/04/11 02:37:31;;;;;;;6.65;5.22;;;;;;;5.08;72.01;101898.63;5052776;28;20090;-33
2022/04/11 02:39:56;;;;;;;6.20;5.27;;;;;;;5.08;72.16;101892.44;5053318;28;20025;-33
2022/04/11 02:42:26;;;;;;;6.20;5.10;;;;;;;5.05;73.57;101890.09;5053306;28;20513;-33
2022/04/11 02:44:52;;;;;;;7.03;5.22;;;;;;;5.06;73.43;101884.53;5053107;28;20032;-33
2022/04/11 02:47:18;;;;;;;5.82;5.15;;;;;;;5.06;74.25;101889.06;5053416;28;20025;-33
2022/04/11 02:49:44;;;;;;;6.75;5.10;;;;;;;4.93;74.86;101878.03;5052698;28;20379;-32
2022/04/11 02:52:09;;;;;;;5.63;4.28;;;;;;;5.04;75.89;101891.94;5053410;28;20025;-32
2022/04/11 02:54:36;;;;;;;6.87;5.17;;;;;;;5.01;74.88;101892.25;5053367;28;20049;-33
2022/04/11 02:57:01;;;;;;;5.53;5.03;;;;;;;4.89;73.17;101899.81;5053366;28;20035;-33
2022/04/11 02:59:27;;;;;;;6.53;5.60;;;;;;;4.83;72.77;101892.47;5052833;28;20397;-33
2022/04/11 03:01:52;;;;;;;5.35;4.85;;;;;;;4.78;74.29;101876.03;5052623;28;20547;-33
2022/04/11 03:04:18;;;;;;;6.03;5.07;;;;;;;4.78;74.91;101870.69;5052618;28;20357;-33
2022/04/11 03:06:43;;;;;;;8.68;5.25;;;;;;;4.73;73.97;101873.00;5052614;28;20075;-33
2022/04/11 03:09:09;;;;;;;5.63;5.13;;;;;;;4.78;74.84;101876.03;5052804;28;20028;-33
2022/04/11 03:11:34;;;;;;;7.10;5.73;;;;;;;4.68;74.84;101875.34;5052822;28;20513;-32
2022/04/11 03:14:00;;;;;;;5.60;5.00;;;;;;;4.77;75.63;101879.72;5052250;28;20025;-33
2022/04/11 03:16:25;;;;;;;6.15;5.55;;;;;;;4.62;74.94;101876.03;5052413;28;20025;-33
2022/04/11 03:18:51;;;;;;;6.13;4.83;;;;;;;4.64;75.74;101880.22;5052707;28;20053;-33
2022/04/11 03:21:16;;;;;;;7.97;5.63;;;;;;;4.57;74.22;101886.41;5052447;28;20072;-33
2022/04/11 03:23:42;;;;;;;7.17;5.40;;;;;;;4.53;74.99;101874.34;5052383;28;20075;-33
2022/04/11 03:26:07;;;;;;;6.50;5.80;;;;;;;4.46;75.53;101860.78;5052910;28;20457;-33
2022/04/11 03:28:32;;;;;;;5.33;4.80;;;;;;;4.54;77.10;101874.19;5052285;28;20545;-33
2022/04/11 03:30:59;;;;;;;7.60;5.73;;;;;;;4.43;75.22;101885.19;5052652;28;20385;-33
2022/04/11 03:33:24;;;;;;;6.78;5.65;;;;;;;4.32;75.09;101878.34;5052040;28;20124;-33
2022/04/11 03:35:50;;;;;;;6.37;5.47;;;;;;;4.28;74.76;101879.66;5052370;28;20113;-33
2022/04/11 03:38:15;;;;;;;7.68;6.07;;;;;;;4.22;75.45;101884.84;5052781;28;20032;-33
2022/04/11 03:40:41;;;;;;;7.13;5.63;;;;;;;4.10;75.74;101876.28;5052550;28;20025;-33
2022/04/11 03:43:06;;;;;;;7.87;6.20;;;;;;;4.11;75.75;101886.00;5051999;28;20302;-33
2022/04/11 03:45:31;;;;;;;7.40;5.77;;;;;;;4.13;77.16;101887.50;5052223;28;20406;-33
2022/04/11 03:47:57;;;;;;;6.60;5.63;;;;;;;4.05;76.99;101883.94;5052071;28;20032;-33
2022/04/11 03:50:22;;;;;;;6.47;5.73;;;;;;;4.02;76.88;101881.63;5052215;28;20087;-33
2022/04/11 03:52:47;;;;;;;6.70;5.67;;;;;;;3.94;77.09;101870.88;5051452;28;20025;-33
2022/04/11 03:55:13;;;;;;;6.63;5.87;;;;;;;3.95;77.60;101891.28;5056456;28;20068;-33
2022/04/11 03:57:38;;;;;;;6.53;5.93;;;;;;;3.91;77.50;101871.22;5055962;28;20112;-33
2022/04/11 04:00:04;;;;;;;6.67;5.77;;;;;;;4.02;79.02;101889.66;5056329;28;20033;-33
2022/04/11 04:02:30;;;;;;;6.60;5.90;;;;;;;3.93;78.03;101890.59;5055455;28;20108;-33
2022/04/11 04:04:55;;;;;;;6.07;5.47;;;;;;;3.89;78.94;101884.72;5054320;28;20588;-33
2022/04/11 04:07:20;;;;;;;6.80;6.10;;;;;;;3.93;79.31;101879.91;5055493;28;20271;-33
2022/04/11 04:09:46;;;;;;;8.67;6.13;;;;;;;3.83;78.13;101880.88;5055653;28;20024;-33
2022/04/11 04:12:11;;;;;;;5.73;5.23;;;;;;;3.78;78.24;101869.81;5055564;28;20057;-33
2022/04/11 04:14:37;;;;;;;6.50;5.80;;;;;;;3.86;79.25;101880.56;5055838;28;20155;-33
2022/04/11 04:17:02;;;;;;;8.65;6.15;;;;;;;3.73;78.93;101863.28;5056323;28;20121;-33
2022/04/11 04:19:28;;;;;;;5.38;4.90;;;;;;;3.86;79.85;101880.56;5055464;28;20108;-33
2022/04/11 04:21:53;;;;;;;7.27;6.27;;;;;;;3.84;79.28;101881.72;5055243;28;20119;-33
2022/04/11 04:24:22;;;;;;;7.63;5.80;;;;;;;3.79;79.20;101879.50;5055612;28;20032;-33
2022/04/11 04:26:48;;;;;;;6.30;5.30;;;;;;;3.81;80.79;101861.47;5055216;28;20025;-33
2022/04/11 04:29:16;;;;;;;6.63;5.70;;;;;;;3.76;79.59;101858.44;5054926;28;20065;-33
2022/04/11 04:31:42;;;;;;;7.80;6.07;;;;;;;3.67;78.44;101872.78;5055348;28;20469;-33
2022/04/11 04:34:07;;;;;;;6.97;5.63;;;;;;;3.79;80.53;101867.97;5053884;28;20029;-33
2022/04/11 04:36:32;;;;;;;6.10;5.33;;;;;;;3.81;81.05;101861.47;5055457;28;20044;-33
2022/04/11 04:38:58;;;;;;;6.93;6.20;;;;;;;3.86;81.25;101861.81;5055678;28;20087;-34
2022/04/11 04:41:23;;;;;;;7.27;5.80;;;;;;;3.83;80.16;101863.97;5055271;28;20090;-33
2022/04/11 04:43:48;;;;;;;5.90;5.27;;;;;;;3.80;80.27;101856.25;5055255;28;20101;-34
2022/04/11 04:46:13;;;;;;;5.43;4.93;;;;;;;3.84;81.63;101866.47;5054712;28;20550;-33
2022/04/11 04:48:39;;;;;;;6.83;6.20;;;;;;;3.65;78.43;101868.59;5055587;28;20025;-33
2022/04/11 04:51:04;;;;;;;7.67;6.07;;;;;;;3.58;78.49;101868.41;5054590;28;20017;-33
2022/04/11 04:53:29;;;;;;;7.53;6.33;;;;;;;3.40;79.86;101832.88;5054958;28;20120;-33
2022/04/11 04:55:55;;;;;;;6.23;5.60;;;;;;;3.52;80.67;101843.13;5054759;28;20120;-33
2022/04/11 04:58:20;;;;;;;6.23;5.53;;;;;;;3.61;81.61;101860.91;5054895;28;20104;-34
2022/04/11 05:00:45;;;;;;;9.57;6.17;;;;;;;3.55;79.77;101858.00;5053104;28;20490;-33
2022/04/11 05:03:11;;;;;;;6.27;5.67;;;;;;;3.52;81.09;101843.13;5054246;28;20029;-34
2022/04/11 05:05:36;;;;;;;7.10;6.30;;;;;;;3.54;80.44;101861.69;5055263;28;20025;-34
2022/04/11 05:08:02;;;;;;;6.97;5.53;;;;;;;3.55;80.84;101866.88;5054873;28;20076;-33
2022/04/11 05:10:27;;;;;;;6.63;5.95;;;;;;;3.40;81.11;101835.53;5055216;28;20169;-33
2022/04/11 05:12:53;;;;;;;7.50;6.37;;;;;;;3.52;79.86;101856.50;5054712;28;20025;-33
2022/04/11 05:15:18;;;;;;;6.80;6.03;;;;;;;3.48;80.42;101848.97;5055077;28;20029;-33
2022/04/11 05:17:43;;;;;;;7.77;6.37;;;;;;;3.47;80.44;101856.16;5054531;28;20037;-33
2022/04/11 05:20:10;;;;;;;7.60;6.20;;;;;;;3.50;81.29;101854.97;5054339;28;20453;-33
2022/04/11 05:22:36;;;;;;;7.63;5.30;;;;;;;3.54;81.79;101861.69;5054352;28;20033;-33
2022/04/11 05:25:02;;;;;;;9.13;6.40;;;;;;;3.52;81.47;101845.81;5053989;28;20366;-33
2022/04/11 05:27:27;;;;;;;12.20;6.03;;;;;;;3.47;82.64;101821.38;5052733;28;20021;-33
2022/04/11 05:29:52;;;;;;;12.00;6.50;;;;;;;3.61;80.59;101852.00;5053791;28;20043;-33
2022/04/11 05:32:18;;;;;;;13.30;6.70;;;;;;;3.72;81.11;101856.25;5054244;28;20113;-33
2022/04/11 05:34:43;;;;;;;11.30;6.68;;;;;;;3.77;80.44;101852.09;5053765;28;20041;-33
2022/04/11 05:37:09;;;;;;;14.33;7.23;;;;;;;3.86;81.50;101842.25;5054152;28;20057;-33
2022/04/11 05:39:34;;;;;;;11.18;6.80;;;;;;;3.97;79.42;101854.50;5053502;28;20048;-33
2022/04/11 05:42:00;;;;;;;11.40;7.00;;;;;;;3.88;78.95;101838.41;5054226;28;20029;-35
2022/04/11 05:44:25;;;;;;;14.07;6.60;;;;;;;3.98;79.60;101832.09;5053658;28;20029;-33
2022/04/11 05:46:52;;;;;;;12.23;6.70;;;;;;;4.21;79.83;101862.59;5053898;28;20024;-33
2022/04/11 05:49:21;;;;;;;9.43;6.03;;;;;;;4.18;78.97;101852.19;5051989;28;20135;-33
2022/04/11 05:51:47;;;;;;;7.90;6.03;;;;;;;4.33;78.89;101847.03;5052580;28;20067;-33
2022/04/11 05:54:13;;;;;;;9.95;6.72;;;;;;;4.47;78.59;101848.22;5053603;28;20041;-33
2022/04/11 05:56:38;;;;;;;10.27;6.60;;;;;;;4.56;78.01;101844.56;5054148;28;20082;-33
2022/04/11 05:59:04;;;;;;;9.83;6.17;;;;;;;4.70;77.30;101851.91;5053392;28;20112;-33
2022/04/11 06:01:32;;;;;;;9.73;6.30;;;;;;;4.70;77.49;101835.84;5053381;28;20458;-33
2022/04/11 06:03:57;;;;;;;11.43;5.93;;;;;;;4.82;76.47;101850.56;5053021;28;20481;-33
2022/04/11 06:06:22;;;;;;;9.60;5.83;;;;;;;4.92;75.94;101847.69;5053250;28;20067;-33
2022/04/11 06:08:48;;;;;;;8.97;5.33;;;;;;;5.00;74.16;101845.03;5053331;28;20040;-33
2022/04/11 06:11:13;;;;;;;8.00;5.07;;;;;;;5.07;73.58;101848.69;5053231;28;20461;-34
2022/04/11 06:13:43;;;;;;;6.73;5.50;;;;;;;5.05;74.10;101849.88;5053955;28;20082;-34
2022/04/11 06:16:09;;;;;;;7.90;5.70;;;;;;;5.07;74.76;101853.22;5052925;28;20287;-34
2022/04/11 06:18:34;;;;;;;8.23;4.85;;;;;;;5.20;75.14;101841.97;5052990;28;20033;-33
2022/04/11 06:21:00;;;;;;;7.33;4.43;;;;;;;5.24;74.04;101827.22;5053226;28;20029;-34
2022/04/11 06:23:25;;;;;;;11.43;5.07;;;;;;;5.39;73.58;101846.94;5053325;28;20028;-34
2022/04/11 06:25:50;;;;;;;9.17;5.93;;;;;;;5.44;72.16;101844.59;5053295;28;20032;-34
2022/04/11 06:28:16;;;;;;;9.67;5.40;;;;;;;5.50;72.93;101843.06;5053092;28;20412;-33
2022/04/11 06:30:41;;;;;;;7.38;4.88;;;;;;;5.57;72.66;101839.50;5051722;28;20527;-33
2022/04/11 06:33:06;;;;;;;7.03;4.70;;;;;;;5.72;71.27;101849.50;5053236;28;20087;-33
2022/04/11 06:35:32;;;;;;;6.33;4.70;;;;;;;5.79;71.69;101842.44;5053389;28;20025;-33
2022/04/11 06:37:57;;;;;;;6.73;4.93;;;;;;;5.90;71.76;101842.03;5052724;28;20029;-33
2022/04/11 06:40:22;;;;;;;5.00;4.50;;;;;;;5.85;70.34;101837.19;5052548;28;20107;-33
2022/04/11 06:42:48;;;;;;;5.17;4.67;;;;;;;5.99;70.56;101843.69;5053427;28;20119;-33
2022/04/11 06:45:14;;;;;;;5.10;4.40;;;;;;;5.99;70.68;101838.31;5052588;28;20115;-33
2022/04/11 06:47:39;;;;;;;;;;;;;;;6.17;70.86;101846.09;5052652;28;20466;-33
2022/04/11 06:50:05;;;;;;;9.70;4.55;;;;;;;6.18;69.78;101847.78;5052603;28;19913;-33
2022/04/11 06:52:31;;;;;;;6.88;4.72;;;;;;;6.28;70.13;101856.44;5052576;28;20081;-34
2022/04/11 06:54:56;;;;;;;12.15;4.90;;;;;;;6.25;69.28;101839.88;5067701;28;20045;-34
2022/04/11 06:57:23;;;;;;;8.73;4.33;;;;;;;6.42;69.78;101849.47;5052645;28;20035;-34
2022/04/11 06:59:49;;;;;;;6.82;4.38;;;;;;;6.54;69.57;101849.88;5052719;28;20021;-34
2022/04/11 07:02:14;;;;;;;7.35;4.75;;;;;;;6.63;70.36;101848.78;5052501;28;20462;-34
2022/04/11 07:04:40;;;;;;;5.33;4.47;;;;;;;6.69;69.26;101856.16;5053127;28;20025;-34
2022/04/11 07:07:05;;;;;;;4.83;4.33;;;;;;;6.76;69.66;101854.41;5053035;28;20029;-34
2022/04/11 07:09:31;;;;;;;9.70;4.70;;;;;;;6.85;68.99;101855.16;5052402;28;20527;-34
2022/04/11 07:11:57;;;;;;;4.82;4.22;;;;;;;6.89;69.62;101854.63;5067947;28;20496;-34
2022/04/11 07:14:22;;;;;;;5.18;4.45;;;;;;;7.03;69.55;101861.06;5052837;28;20021;-34
2022/04/11 07:16:48;;;;;;;5.93;3.70;;;;;;;7.13;69.90;101845.50;5052154;28;20036;-34
2022/04/11 07:19:14;;;;;;;8.02;4.53;;;;;;;7.13;68.56;101841.97;5052503;28;20037;-34
2022/04/11 07:21:39;;;;;;;6.88;4.35;;;;;;;7.17;67.57;101843.25;5052228;28;20431;-34
2022/04/11 07:24:05;;;;;;;6.73;4.50;;;;;;;7.22;68.43;101849.78;5052663;28;20021;-34
2022/04/11 07:26:30;;;;;;;5.13;4.40;;;;;;;7.28;68.71;101828.53;5052880;28;20489;-34
2022/04/11 07:28:55;;;;;;;6.77;4.40;;;;;;;7.37;68.63;101833.63;5056296;28;20279;-34
2022/04/11 07:31:21;;;;;;;7.40;4.53;;;;;;;7.52;68.08;101830.09;5056864;28;20047;-34
2022/04/11 07:33:47;;;;;;;5.70;4.13;;;;;;;7.65;68.94;101828.41;5056718;28;20025;-34
2022/04/11 07:36:12;;;;;;;;;;;;;;;7.75;66.96;101830.78;5056474;28;20041;-34
2022/04/11 07:38:38;;;;;;;5.63;4.65;;;;;;;7.80;67.74;101830.22;5055944;28;19971;-34
2022/04/11 07:41:03;;;;;;;8.87;4.53;;;;;;;7.83;66.37;101819.94;5056310;28;20194;-34
2022/04/11 07:43:29;;;;;;;6.43;4.30;;;;;;;7.94;67.17;101822.13;5056059;28;20032;-34
2022/04/11 07:45:54;;;;;;;7.65;4.75;;;;;;;8.02;67.17;101818.50;5056425;28;20099;-34
2022/04/11 07:48:19;;;;;;;7.47;4.27;;;;;;;8.09;65.30;101816.69;5055999;28;20033;-34
2022/04/11 07:50:45;;;;;;;8.60;4.30;;;;;;;8.26;65.57;101815.44;5054990;28;20126;-34
2022/04/11 07:53:10;;;;;;;4.73;3.77;;;;;;;8.37;65.22;101816.81;5055625;28;20055;-34
2022/04/11 07:55:35;;;;;;;6.47;4.50;;;;;;;8.44;65.31;101812.34;5056439;28;20031;-34
2022/04/11 07:58:01;;;;;;;5.07;3.97;;;;;;;8.49;65.16;101809.03;5055909;28;20033;-34
2022/04/11 08:00:26;;;;;;;4.70;4.20;;;;;;;8.63;66.21;101807.28;5055775;28;20067;-34
2022/04/11 08:02:53;;;;;;;8.10;4.50;;;;;;;8.66;64.84;101791.56;5055796;28;20047;-34
2022/04/11 08:05:21;;;;;;;6.00;3.80;;;;;;;8.86;64.84;101802.50;5056493;28;20393;-34
2022/04/11 08:07:47;;;;;;;4.68;3.60;;;;;;;8.95;64.51;101800.50;5055606;28;20031;-34
2022/04/11 08:10:13;;;;;;;5.78;3.40;;;;;;;9.06;63.91;101796.41;5056125;28;20033;-34
2022/04/11 08:12:39;;;;;;;6.82;3.80;;;;;;;9.17;64.62;101793.97;5055762;28;20108;-34
2022/04/11 08:15:05;;;;;;;4.95;3.53;;;;;;;9.32;63.28;101788.47;5055592;28;20390;-34
2022/04/11 08:17:31;;;;;;;5.60;3.53;;;;;;;9.40;63.23;101788.28;5055332;28;20466;-34
2022/04/11 08:19:56;;;;;;;4.33;3.37;;;;;;;9.47;62.50;101783.78;5055236;28;20036;-34
2022/04/11 08:22:21;;;;;;;6.10;3.27;;;;;;;9.38;60.59;101749.06;5055733;28;20040;-34
2022/04/11 08:24:47;;;;;;;5.43;3.10;;;;;;;9.67;62.72;101777.63;5055477;28;20037;-34
2022/04/11 08:27:12;;;;;;;6.63;3.57;;;;;;;9.67;60.52;101780.31;5055164;28;20031;-34
2022/04/11 08:29:37;;;;;;;4.07;3.30;;;;;;;9.78;61.11;101775.16;5055226;28;20029;-34
2022/04/11 08:32:03;;;;;;;6.43;3.47;;;;;;;9.81;59.62;101773.94;5054951;28;20032;-34
2022/04/11 08:34:29;;;;;;;6.20;3.53;;;;;;;9.76;60.16;101776.38;5055170;28;20028;-34
2022/04/11 08:36:54;;;;;;;7.50;3.90;;;;;;;9.80;60.68;101761.44;5055740;28;20025;-34
2022/04/11 08:39:19;;;;;;;6.43;3.87;;;;;;;9.75;59.38;101767.44;5054590;28;20057;-34
2022/04/11 08:41:45;;;;;;;3.87;3.03;;;;;;;9.99;59.78;101776.03;5055011;28;20110;-34
2022/04/11 08:44:12;;;;;;;5.60;3.13;;;;;;;10.05;58.18;101769.81;5055082;28;20021;-34
2022/04/11 08:46:38;;;;;;;5.55;2.90;;;;;;;10.22;58.61;101765.69;5054688;28;20474;-34
2022/04/11 08:49:06;;;;;;;8.80;3.50;;;;;;;10.23;58.28;101772.75;5054689;28;20040;-34
2022/04/11 08:51:33;;;;;;;5.10;2.92;;;;;;;10.43;58.41;101769.28;5054612;28;20115;-34
2022/04/11 08:54:03;;;;;;;8.18;3.03;;;;;;;10.47;57.30;101757.00;5054943;28;20056;-34
2022/04/11 08:56:29;;;;;;;6.95;2.85;;;;;;;10.57;56.03;101757.41;5055817;28;20040;-34
2022/04/11 08:58:54;;;;;;;;;;;;;;;10.72;57.38;101763.44;5053843;28;20029;-34
2022/04/11 09:01:20;;;;;;;4.07;2.75;;;;;;;10.73;57.15;101762.41;5054999;28;19919;-34
2022/04/11 09:03:46;;;;;;;;;;;;;;;10.73;57.40;101762.41;5055114;28;20024;-34
2022/04/11 09:06:14;;;;;;;5.17;3.03;;;;;;;10.79;57.73;101755.34;5055143;28;20428;-34
2022/04/11 09:08:46;;;;;;;6.75;3.20;;;;;;;10.99;57.92;101771.53;5054486;28;20283;-33
2022/04/11 09:11:12;;;;;;;6.32;2.50;;;;;;;11.11;56.35;101766.31;5054848;28;20032;-33
2022/04/11 09:13:50;;;;;;;4.90;2.95;;;;;;;11.25;55.88;101773.34;5054635;28;20111;-33
2022/04/11 09:16:15;;;;;;;3.53;2.60;;;;;;;11.29;54.96;101769.16;5054896;28;20035;-33
2022/04/11 09:18:52;;;;;;;3.60;2.50;;;;;;;11.29;54.60;101761.03;5054435;28;20486;-33
2022/04/11 09:21:18;;;;;;;;;;;;;;;11.45;56.68;101765.97;5055564;28;20024;-33
2022/04/11 09:23:43;;;;;;;3.22;2.60;;;;;;;11.48;54.86;101754.72;5054381;28;20268;-34
2022/04/11 09:26:19;;;;;;;3.45;2.30;;;;;;;11.63;54.18;101759.88;5054211;28;20127;-33
2022/04/11 09:28:58;;;;;;;4.72;2.65;;;;;;;11.71;53.61;101740.66;5052894;28;20059;-33
2022/04/11 09:31:23;;;;;;;5.38;2.67;;;;;;;11.85;55.56;101741.44;5053942;28;20024;-33
2022/04/11 09:33:48;;;;;;;4.88;2.40;;;;;;;11.77;53.14;101720.81;5054328;28;20029;-33
2022/04/11 09:36:15;;;;;;;4.77;2.40;;;;;;;11.89;53.07;101718.28;5053515;28;20037;-33
2022/04/11 09:38:41;;;;;;;4.68;2.60;;;;;;;12.07;53.70;101726.50;5053994;28;20036;-33
2022/04/11 09:41:06;;;;;;;4.38;2.50;;;;;;;12.22;54.37;101711.78;5054195;28;20033;-34
2022/04/11 09:43:33;;;;;;;3.77;1.80;;;;;;;12.22;48.02;101728.06;5053898;28;20045;-34
2022/04/11 09:46:03;;;;;;;4.97;2.28;;;;;;;12.24;50.91;101706.97;5054060;28;20151;-34
2022/04/11 09:48:33;;;;;;;7.68;2.33;;;;;;;12.38;48.81;101720.19;5053752;28;20029;-34
2022/04/11 09:50:59;;;;;;;3.42;2.10;;;;;;;12.31;47.87;101721.31;5054563;28;20215;-33
2022/04/11 09:53:29;;;;;;;;;;;;;;;12.34;48.18;101718.13;5054186;28;20045;-34
2022/04/11 09:55:55;;;;;;;4.75;2.00;;;;;;;12.41;48.24;101707.25;5054145;28;19959;-33
2022/04/11 09:58:22;;;;;;;3.60;2.22;;;;;;;12.50;48.18;101709.47;5053355;28;20118;-34
2022/04/11 10:00:49;;;;;;;5.18;2.35;;;;;;;12.41;47.29;101694.53;5053894;28;20115;-33
2022/04/11 10:03:16;;;;;;;3.53;2.15;;;;;;;12.46;46.87;101700.09;5052998;28;20021;-33
2022/04/11 10:05:41;;;;;;;7.55;2.13;;;;;;;12.60;47.05;101700.81;5053590;28;20052;-34
2022/04/11 10:08:08;;;;;;;2.78;1.90;;;;;;;12.69;45.95;101696.75;5053924;28;20064;-34
2022/04/11 10:10:38;;;;;;;5.38;2.10;;;;;;;12.89;49.13;101701.97;5054291;28;20567;-33
2022/04/11 10:13:05;;;;;;;5.22;2.25;;;;;;;12.89;46.27;101696.56;5053116;28;20454;-34
2022/04/11 10:15:31;;;;;;;3.95;2.40;;;;;;;12.86;47.27;101675.28;5053725;28;20346;-34
2022/04/11 10:17:56;;;;;;;5.40;2.10;;;;;;;12.93;44.54;101680.63;5053116;28;20043;-34
2022/04/11 10:20:30;;;;;;;3.92;2.45;;;;;;;12.76;44.52;101674.97;5053257;28;20033;-33
2022/04/11 10:23:00;;;;;;;5.10;2.03;;;;;;;12.94;44.69;101688.56;5053200;28;20028;-34
2022/04/11 10:25:27;;;;;;;3.45;2.08;;;;;;;12.99;45.76;101690.59;5053442;28;20032;-33
2022/04/11 10:28:17;;;;;;;3.10;1.92;;;;;;;13.09;44.56;101685.47;5053088;28;20040;-34
2022/04/11 10:30:43;;;;;;;6.07;2.08;;;;;;;13.15;45.77;101688.09;5053351;28;20115;-33
2022/04/11 10:33:08;;;;;;;4.38;2.17;;;;;;;13.25;46.15;101675.91;5052474;28;20028;-33
2022/04/11 10:35:43;;;;;;;4.05;1.90;;;;;;;13.21;46.39;101670.03;5053063;28;20029;-34
2022/04/11 10:38:10;;;;;;;5.95;2.30;;;;;;;13.10;44.57;101678.97;5052955;28;20025;-33
2022/04/11 10:40:37;;;;;;;4.00;2.20;;;;;;;13.01;44.59;101673.00;5052098;28;20124;-33
2022/04/11 10:43:04;;;;;;;3.60;2.03;;;;;;;13.05;43.63;101685.09;5052949;28;20385;-34
2022/04/11 10:46:03;;;;;;;4.55;2.28;;;;;;;13.11;42.83;101683.34;5052927;28;20108;-34
2022/04/11 10:49:05;;;;;;;3.35;1.88;;;;;;;13.20;43.39;101681.16;5031160;28;20111;-34
2022/04/11 10:51:30;;;;;;;4.07;2.00;;;;;;;13.25;44.46;101668.56;5013605;28;20080;-35
2022/04/11 10:54:18;;;;;;;4.00;2.28;;;;;;;13.22;43.14;101638.31;5030333;28;20142;-33
2022/04/11 10:56:55;;;;;;;4.93;2.03;;;;;;;13.25;44.07;101637.88;5013569;28;20527;-34
2022/04/11 10:59:28;;;;;;;4.80;2.10;;;;;;;13.47;43.54;101655.34;5030401;28;20375;-34
2022/04/11 11:01:55;;;;;;;3.72;1.90;;;;;;;13.59;41.40;101650.75;5030524;28;20485;-34
2022/04/11 11:04:22;;;;;;;3.38;1.88;;;;;;;13.45;41.86;101640.31;5030452;28;20038;-34
2022/04/11 11:07:08;;;;;;;3.58;2.20;;;;;;;13.59;42.11;101656.19;5013946;28;20040;-34
2022/04/11 11:09:40;;;;;;;4.35;2.05;;;;;;;13.71;43.61;101639.91;5030861;28;20033;-33
2022/04/11 11:12:20;;;;;;;4.53;2.20;;;;;;;13.80;43.59;101641.22;5030457;28;20046;-34
2022/04/11 11:14:46;;;;;;;3.97;2.03;;;;;;;13.58;42.48;101629.25;5030209;28;20029;-34
2022/04/11 11:17:11;;;;;;;3.97;1.95;;;;;;;13.50;42.93;101605.94;5030896;28;20041;-34
2022/04/11 11:20:02;;;;;;;3.58;2.08;;;;;;;13.75;42.19;101626.69;5030180;28;20041;-34
2022/04/11 11:22:31;;;;;;;5.70;2.53;;;;;;;13.93;43.73;101620.34;5014396;28;20535;-39
2022/04/11 11:25:17;;;;;;;3.15;1.85;;;;;;;14.08;43.56;101615.28;5049763;28;20048;-33
2022/04/11 11:27:44;;;;;;;3.45;2.30;;;;;;;13.97;42.71;101606.06;5052631;28;20029;-34
2022/04/11 11:30:11;;;;;;;5.20;2.17;;;;;;;14.06;41.64;101595.66;5052342;28;20021;-33